Terminal Aerodrome Forecast
Issued by NWS Nashville, TN

Home | Current Version | Previous Version | Text Only | Print | Product List | Glossary On
Versions: 1 2 3 4 5 6 7 8 9 10 11 12 13 14 15 16 17 18 19 20 21
000
FTUS44 KOHX 251700
TAFCSV
TAF
KCSV 251720Z 2518/2618 17012KT P6SM BKN025
     FM251900 21012G22KT P6SM BKN050
     FM260000 23010KT P6SM BKN035 BKN050
     FM260600 29010KT P6SM VCTS BKN025CB OVC035
     FM260900 31007KT 4SM BR OVC008
     FM261500 33006KT P6SM OVC025=

USA.gov is the U.S. government's official web portal to all federal, state and local government web resources and services.